KSFO/SFO METAR and TAF weather

Enter ICAO airport designator
Station Type Date Time Source
KSFO METAR 2021/10/24 22:09 UTC NOAA

KSFO 242209Z 19029G43KT 1 1/2SM R28R/3000VP6000FT RA BR FEW008 BKN027 OVC049 17/16 A2955 RMK AO2 PK WND 18043/2207 P0005 T01720156


Station Type Date Time Source
KSFO Decoded METAR 2021/10/24 22:09 UTC NOAA

SAN FRANCISCO INTERNATIONAL AIRPORT , CA, United States (KSFO) 37-37N 122-22W 26M
Oct 24, 2021 - 06:09 PM EDT / 2021.10.24 2209 UTC
Wind: from the S (190 degrees) at 33 MPH (29 KT) gusting to 49 MPH (43 KT):0
Visibility: 1 1/2 mile(s):0
Sky conditions: overcast
Weather: rain; mist
Precipitation last hour: 0.05 inches
Temperature: 63.0 F (17.2 C)
Dew Point: 60.1 F (15.6 C)
Relative Humidity: 90%
Pressure (altimeter): 29.55 in. Hg (1000 hPa)
ob: KSFO 242209Z 19029G43KT 1 1/2SM R28R/3000VP6000FT RA BR FEW008 BKN027 OVC049 17/16 A2955 RMK AO2 PK WND 18043/2207 P0005 T01720156
cycle: 22

Station Type Date Time Source
KSFO TAF 2021/10/24 21:51 UTC NOAA

TAF
AMD KSFO 242048Z 2421/2524 19030G46KT 2SM +RA BR FEW008 BKN020 OVC035 WS015/23055KT
FM250100 19018G30KT 1 1/2SM +RA BR SCT006 OVC015 WS015/24045KT
FM250300 23015G25KT 2SM RA BR OVC015 WS015/24040KT
FM250900 24012G18KT 5SM -RA BR SCT008 OVC020 WS010/24030KT
FM251100 25010KT 5SM -RA BR SCT010 OVC025
FM251700 26012KT P6SM VCSH SCT020 OVC035
FM252100 27015G24KT P6SM VCSH FEW020 OVC050

Example: see airport list